Aérodrome :
LOGIN :

S'inscrire | Disclaimer

   EN    FR    IT 

 










Légende :    VFR   VFR Marginal   IFR   IFR Intensif   IFR Très Intensif
Visi : 
Plafond : 
>= 8 km
>= 3000ft
5 à 8 km
1000 à 3000 ft
1500m à 5 km
500 à 1000 ft
800 à 1500m
200 à 500 ft
< 800m
< 200 ft
Symboles :   Orages  Brouillard  Fortes neiges  Fortes précipitations  Vent > 20 kt
SIGMETs :   Divers  Orages  Givrage  Turbulence  Onde Orograph.  Cendres Volcan.







- Altitude de l'aérodrome : 87 ft
- Code IATA : FSC
- Voir les cartes d'approche


LFKF - Figari

DERNIER METAR :
  • 161730Z AUTO 23017KT 9999 FEW016 BKN021 BKN028 26/23 Q1010 TEMPO 25015G25KT TSRA FEW025 SCT050CB BKN080

METARs EXPIRÉS :
  • 161700Z AUTO 24019KT 9999 BKN016/// OVC024/// ///CB 27/22 Q1010 TEMPO 25015G25KT TSRA
  • 161630Z AUTO 24020G32KT 9999 BKN020 27/22 Q1010 TEMPO TSRA FEW025 SCT050CB BKN080
  • 161600Z AUTO 25023KT CAVOK 28/21 Q1010 TEMPO 25015G25KT TSRA FEW025 SCT050CB BKN080
  • 161530Z AUTO 27021KT 9999 SCT032 29/21 Q1010 TEMPO 25015G25KT TSRA FEW025 SCT050CB BKN080
  • 161500Z AUTO 27021G31KT 230V310 9999 SCT035 SCT043 BKN150 31/21 Q1011 BECMG 25012KT

TAF AMD TAF LFKF
Valide du 16 à 15h jusqu'au 17 à 15h UTC


161456Z 1615/1715 25012KT 9999 FEW050 BKN100
TEMPO 1615/1616 26025G35KT
PROB40
TEMPO 1617/1621 25015G25KT TSRA FEW025 SCT050CB BKN080
BECMG 1622/1624 FEW020
TEMPO 1622/1701 25017G30KT
TEMPO 1711/1715 25015G25KT
Pas de NOTAMs connus pour ce terrain.
3 SIGMETs publiés pour la FIR Marseille (LFMM) :
 
Orages noyés dans la masse
LFMM SIGMET 24 VALID 161600/161800 LFPW
LFMM MARSEILLE FIR/UIR EMBD TS FCST WI N4515 E00245 - N4630 E00300 - N4630 E00415 - N4500 E00415 - N4515 E00245 TOP FL370 STNR NC=
Orages noyés dans la masse
LFMM SIGMET 23 VALID 161600/161800 LFPW
LFMM MARSEILLE FIR/UIR EMBD TS FCST WI N4415 E00700 - N4400 E00700 - N4330 E00900 - N4230 E00615 - N4330 E00545 - N4415 E00700 TOP FL380 MOV E 20KT NC=
Turbulence forte
LFMM SIGMET 22 VALID 161600/162000 LFPW
LFMM MARSEILLE FIR/UIR SEV TURB FCST WI N4130 E00430 - N4200 E00430 - N4215 E00245 - N4230 E00230 - N4315 E00245 - N4400 E00315 - N4145 E00600 - N4130 E00430 SFC/FL060 STNR NC=



MET'MAP, la Météo Aéronautique d'un coup d'oeil ! - Copyright ORBIFLY Décembre 2007 - Disclaimer

ORBIFLY MET'MAP TEAM :

Programmation & Développement : Alexandra Zaïnal
Conception & Développement : Baudouin d'Aumeries
Co-Programmation & Développement : Marc-Olivier Méhu
Soutien technique & logistique : Manuel Goepfert

Contact : metmap@orbifly.com




SOURCES & CREDITS :

   NOAA